Time;durP1;ratioP1;P1;durP2;ratioP2;P2;SDS_P1;SDS_P2;PMS_P1;PMS_P2;Temp;Humidity;BMP_temperature;BMP_pressure;BME280_temperature;BME280_humidity;BME280_pressure;Samples;Min_cycle;Max_cycle;Signal;HPM_P1;HPM_P2
2023/12/03 00:01:31;;;;;;;60.40;31.05;;;0.10;99.90;;;;;;7376374;19;20019;-58
2023/12/03 00:03:58;;;;;;;65.75;31.13;;;0.10;99.90;;;;;;7379883;19;20017;-58
2023/12/03 00:06:25;;;;;;;61.05;30.05;;;0.10;99.90;;;;;;7379036;19;20018;-58
2023/12/03 00:08:51;;;;;;;58.20;30.02;;;0.10;99.90;;;;;;7375326;19;20038;-58
2023/12/03 00:11:18;;;;;;;60.28;30.80;;;0.00;99.90;;;;;;7378118;19;20048;-58
2023/12/03 00:13:44;;;;;;;55.72;30.08;;;0.00;99.90;;;;;;7374733;19;20053;-57
2023/12/03 00:16:10;;;;;;;57.35;29.85;;;0.00;99.90;;;;;;7378853;19;20064;-58
2023/12/03 00:18:39;;;;;;;62.22;30.60;;;0.00;99.90;;;;;;7373927;19;20022;-57
2023/12/03 00:21:06;;;;;;;72.82;32.78;;;0.00;99.90;;;;;;7376172;19;20020;-58
2023/12/03 00:23:32;;;;;;;57.47;30.50;;;0.00;99.90;;;;;;7374944;19;20025;-58
2023/12/03 00:25:59;;;;;;;66.85;32.58;;;0.00;99.90;;;;;;7374139;19;20048;-58
2023/12/03 00:28:25;;;;;;;64.68;31.77;;;0.00;99.90;;;;;;7372747;19;20022;-58
2023/12/03 00:30:51;;;;;;;60.55;30.13;;;0.00;99.90;;;;;;7373258;19;20067;-58
2023/12/03 00:33:17;;;;;;;71.05;32.47;;;0.00;99.90;;;;;;7375578;19;20454;-58
2023/12/03 00:35:44;;;;;;;72.72;31.80;;;0.10;99.90;;;;;;7376199;19;20022;-58
2023/12/03 00:38:10;;;;;;;67.82;32.88;;;0.10;99.90;;;;;;7374260;19;20034;-58
2023/12/03 00:40:37;;;;;;;68.30;33.53;;;0.10;99.90;;;;;;7372815;19;20019;-58
2023/12/03 00:43:04;;;;;;;68.90;32.58;;;0.10;99.90;;;;;;7373063;19;20022;-58
2023/12/03 00:45:30;;;;;;;67.30;31.65;;;0.10;99.90;;;;;;7374607;19;20020;-58
2023/12/03 00:47:57;;;;;;;67.28;31.10;;;0.10;99.90;;;;;;7375087;19;20415;-58
2023/12/03 00:50:23;;;;;;;69.13;32.35;;;0.10;99.90;;;;;;7372335;19;20010;-57
2023/12/03 00:52:49;;;;;;;64.53;32.63;;;0.10;99.90;;;;;;7372933;19;20023;-58
2023/12/03 00:55:16;;;;;;;66.78;31.95;;;0.10;99.90;;;;;;7374421;19;20015;-57
2023/12/03 00:57:42;;;;;;;65.07;32.75;;;0.10;99.90;;;;;;7375639;19;20022;-58
2023/12/03 01:00:09;;;;;;;67.10;32.20;;;0.10;99.90;;;;;;7374126;19;20486;-58
2023/12/03 01:02:37;;;;;;;72.20;31.08;;;0.10;99.90;;;;;;7372477;19;20026;-58
2023/12/03 01:05:04;;;;;;;65.28;32.20;;;0.10;99.90;;;;;;7374974;19;20022;-58
2023/12/03 01:07:33;;;;;;;66.45;31.90;;;0.00;99.90;;;;;;7375658;19;20824;-59
2023/12/03 01:10:00;;;;;;;64.47;30.05;;;0.10;99.90;;;;;;7373908;19;20466;-58
2023/12/03 01:12:26;;;;;;;62.42;31.73;;;0.00;99.90;;;;;;7374327;19;20025;-58
2023/12/03 01:14:53;;;;;;;68.07;33.15;;;0.10;99.90;;;;;;7375140;19;20022;-58
2023/12/03 01:17:19;;;;;;;68.78;32.85;;;0.00;99.90;;;;;;7371985;19;20019;-58
2023/12/03 01:19:45;;;;;;;65.65;30.88;;;0.10;99.90;;;;;;7375125;19;20015;-58
2023/12/03 01:22:12;;;;;;;63.75;30.95;;;0.10;99.90;;;;;;7372784;19;20044;-58
2023/12/03 01:24:39;;;;;;;65.78;32.97;;;0.10;99.90;;;;;;7376599;19;20014;-59
2023/12/03 01:27:06;;;;;;;64.28;32.47;;;0.10;99.90;;;;;;7376901;19;20022;-58
2023/12/03 01:29:33;;;;;;;73.35;33.85;;;0.10;99.90;;;;;;7377848;19;20019;-59
2023/12/03 01:31:59;;;;;;;62.65;32.13;;;0.20;99.90;;;;;;7374690;19;20018;-59
2023/12/03 01:34:26;;;;;;;71.53;32.33;;;0.20;99.90;;;;;;7372683;19;20473;-58
2023/12/03 01:36:52;;;;;;;68.07;32.28;;;0.20;99.90;;;;;;7376980;19;20025;-58
2023/12/03 01:39:18;;;;;;;70.93;32.83;;;0.30;99.90;;;;;;7374034;19;20026;-58
2023/12/03 01:41:45;;;;;;;69.20;34.10;;;0.20;99.90;;;;;;7372668;19;20026;-58
2023/12/03 01:44:12;;;;;;;70.85;33.00;;;0.30;99.90;;;;;;7372803;19;20089;-59
2023/12/03 01:46:38;;;;;;;67.63;32.05;;;0.30;99.90;;;;;;7377199;19;20498;-59
2023/12/03 01:49:04;;;;;;;67.80;33.63;;;0.30;99.90;;;;;;7370821;19;20022;-58
2023/12/03 01:51:31;;;;;;;65.68;34.78;;;0.30;99.90;;;;;;7374422;19;20019;-59
2023/12/03 01:53:57;;;;;;;67.47;33.80;;;0.40;99.90;;;;;;7371952;19;20082;-59
2023/12/03 01:56:24;;;;;;;70.18;34.50;;;0.40;99.90;;;;;;7371381;19;20509;-58
2023/12/03 01:58:50;;;;;;;62.72;33.90;;;0.40;99.90;;;;;;7371690;19;20018;-59
2023/12/03 02:01:17;;;;;;;71.60;34.33;;;0.50;99.90;;;;;;7373970;19;20022;-58
2023/12/03 02:03:43;;;;;;;68.80;34.30;;;0.50;99.90;;;;;;7371853;19;20018;-60
2023/12/03 02:06:10;;;;;;;66.22;34.67;;;0.50;99.90;;;;;;7373648;19;20059;-59
2023/12/03 02:08:37;;;;;;;65.80;33.13;;;0.50;99.90;;;;;;7370726;19;20039;-59
2023/12/03 02:11:05;;;;;;;79.82;35.92;;;0.60;99.90;;;;;;7375271;19;20010;-59
2023/12/03 02:13:34;;;;;;;75.15;36.45;;;0.60;99.90;;;;;;7371283;19;20022;-59
2023/12/03 02:16:01;;;;;;;82.35;36.88;;;0.60;99.90;;;;;;7374142;19;20356;-59
2023/12/03 02:18:27;;;;;;;99.35;38.25;;;0.60;99.90;;;;;;7372818;19;20038;-59
2023/12/03 02:20:57;;;;;;;83.07;37.03;;;0.70;99.90;;;;;;7371842;19;20023;-59
2023/12/03 02:23:30;;;;;;;98.25;37.42;;;0.70;99.90;;;;;;7371366;19;20010;-59
2023/12/03 02:25:57;;;;;;;106.25;40.50;;;0.70;99.90;;;;;;7375016;19;20515;-58
2023/12/03 02:28:24;;;;;;;145.63;44.97;;;0.70;99.90;;;;;;7370863;19;20123;-58
2023/12/03 02:30:50;;;;;;;176.40;44.38;;;0.70;99.90;;;;;;7367227;19;20014;-58
2023/12/03 02:33:19;;;;;;;152.77;46.45;;;0.80;99.90;;;;;;7369179;19;20026;-59
2023/12/03 02:35:47;;;;;;;109.93;45.05;;;0.80;99.90;;;;;;7371301;19;20025;-58
2023/12/03 02:38:13;;;;;;;114.50;44.38;;;0.90;99.90;;;;;;7373406;19;20111;-59
2023/12/03 02:40:43;;;;;;;114.13;45.10;;;0.90;99.90;;;;;;7372726;19;20102;-58
2023/12/03 02:43:09;;;;;;;107.30;44.97;;;0.90;99.90;;;;;;7367303;19;20022;-58
2023/12/03 02:45:36;;;;;;;110.60;45.97;;;0.90;99.90;;;;;;7372901;19;20772;-58
2023/12/03 02:48:02;;;;;;;105.25;45.20;;;0.90;99.90;;;;;;7376066;19;20478;-59
2023/12/03 02:50:28;;;;;;;105.15;44.28;;;0.90;99.90;;;;;;7372574;19;20018;-58
2023/12/03 02:52:54;;;;;;;118.28;46.65;;;0.90;99.90;;;;;;7369482;19;20030;-58
2023/12/03 02:55:40;;;;;;;90.95;41.22;;;0.90;99.90;;;;;;7371397;19;20022;-59
2023/12/03 02:58:08;;;;;;;96.03;41.78;;;0.90;99.90;;;;;;7374881;19;20018;-59
2023/12/03 03:00:34;;;;;;;95.22;40.92;;;0.90;99.90;;;;;;7372642;19;20514;-58
2023/12/03 03:03:01;;;;;;;91.30;42.83;;;0.90;99.90;;;;;;7369742;19;20033;-58
2023/12/03 03:05:27;;;;;;;94.82;40.30;;;1.00;99.90;;;;;;7373869;19;20047;-59
2023/12/03 03:07:53;;;;;;;94.05;41.58;;;1.00;99.90;;;;;;7380123;19;20018;-59
2023/12/03 03:10:20;;;;;;;98.65;42.13;;;1.00;99.90;;;;;;7380869;19;20086;-59
2023/12/03 03:12:46;;;;;;;95.40;43.35;;;1.00;99.90;;;;;;7376630;19;20110;-58
2023/12/03 03:15:12;;;;;;;93.05;42.00;;;1.00;99.90;;;;;;7381537;19;20102;-59
2023/12/03 03:17:38;;;;;;;107.10;44.45;;;1.10;99.90;;;;;;7379282;19;20449;-58
2023/12/03 03:20:05;;;;;;;106.03;41.88;;;1.00;99.90;;;;;;7378913;19;20018;-59
2023/12/03 03:22:32;;;;;;;106.72;43.22;;;1.10;99.90;;;;;;7379013;19;20043;-58
2023/12/03 03:24:59;;;;;;;109.68;43.22;;;1.10;99.90;;;;;;7379768;19;20085;-58
2023/12/03 03:27:25;;;;;;;118.28;44.42;;;1.10;99.90;;;;;;7378498;19;20493;-58
2023/12/03 03:29:51;;;;;;;126.25;44.55;;;1.10;99.90;;;;;;7380304;19;20019;-59
2023/12/03 03:32:18;;;;;;;142.13;47.63;;;1.10;99.90;;;;;;7378489;19;20049;-59
2023/12/03 03:34:44;;;;;;;158.68;46.10;;;1.20;99.90;;;;;;7381111;19;20019;-58
2023/12/03 03:37:10;;;;;;;150.30;47.40;;;1.10;99.90;;;;;;7380441;19;20074;-58
2023/12/03 03:39:37;;;;;;;187.13;50.38;;;1.10;99.90;;;;;;7380472;19;20110;-59
2023/12/03 03:42:03;;;;;;;178.25;49.10;;;1.20;99.90;;;;;;7380722;19;20511;-59
2023/12/03 03:44:30;;;;;;;255.85;57.83;;;1.20;99.90;;;;;;7380266;19;20097;-59
2023/12/03 03:46:56;;;;;;;223.35;51.35;;;1.20;99.90;;;;;;7376138;19;20144;-58
2023/12/03 03:49:22;;;;;;;230.63;54.38;;;1.20;99.90;;;;;;7380854;19;20033;-58
2023/12/03 03:51:50;;;;;;;303.30;61.67;;;1.20;99.90;;;;;;7378087;19;20078;-58
2023/12/03 03:54:16;;;;;;;312.15;60.35;;;1.10;99.90;;;;;;7375210;19;20026;-59
2023/12/03 03:56:47;;;;;;;283.92;55.38;;;1.10;99.90;;;;;;7376572;19;20035;-58
2023/12/03 03:59:13;;;;;;;243.57;51.63;;;1.10;99.90;;;;;;7379369;19;20680;-58
2023/12/03 04:01:43;;;;;;;303.45;54.75;;;1.10;99.90;;;;;;7376434;19;20275;-58
2023/12/03 04:04:10;;;;;;;233.02;50.78;;;1.10;99.90;;;;;;7380152;19;20015;-58
2023/12/03 04:06:41;;;;;;;257.25;51.08;;;1.00;99.90;;;;;;7378929;19;20785;-58
2023/12/03 04:09:08;;;;;;;231.60;49.58;;;1.10;99.90;;;;;;7381769;19;20019;-59
2023/12/03 04:11:47;;;;;;;215.23;49.10;;;1.00;99.90;;;;;;7374557;19;20093;-58
2023/12/03 04:14:18;;;;;;;179.52;43.83;;;1.00;99.90;;;;;;7377813;19;20106;-58
2023/12/03 04:16:44;;;;;;;198.43;47.30;;;1.00;99.90;;;;;;7373778;19;20490;-58
2023/12/03 04:19:13;;;;;;;205.05;44.75;;;1.00;99.90;;;;;;7381102;19;20112;-58
2023/12/03 04:21:39;;;;;;;204.10;47.58;;;1.00;99.90;;;;;;7377403;19;20018;-58
2023/12/03 04:24:05;;;;;;;258.83;52.13;;;1.00;99.90;;;;;;7378705;19;20840;-58
2023/12/03 04:26:32;;;;;;;210.93;47.10;;;1.00;99.90;;;;;;7376762;19;20426;-58
2023/12/03 04:28:59;;;;;;;237.00;47.95;;;1.00;99.90;;;;;;7370464;19;20096;-58
2023/12/03 04:31:26;;;;;;;163.10;41.92;;;1.00;99.90;;;;;;7378729;19;20014;-58
2023/12/03 04:34:12;;;;;;;168.77;42.90;;;1.00;99.90;;;;;;7372125;19;20015;-58
2023/12/03 04:36:59;;;;;;;154.98;41.72;;;1.00;99.90;;;;;;7374854;19;20026;-58
2023/12/03 04:39:25;;;;;;;187.52;45.53;;;1.00;99.90;;;;;;7377332;19;20752;-58
2023/12/03 04:41:51;;;;;;;152.05;43.95;;;1.00;99.90;;;;;;7375620;19;20023;-58
2023/12/03 04:44:17;;;;;;;163.88;43.08;;;1.00;99.90;;;;;;7378756;19;20082;-58
2023/12/03 04:46:45;;;;;;;179.00;42.42;;;1.00;99.90;;;;;;7374504;19;20019;-58
2023/12/03 04:49:11;;;;;;;135.38;38.67;;;1.10;99.90;;;;;;7378399;19;20475;-59
2023/12/03 04:51:38;;;;;;;135.70;37.92;;;1.10;99.90;;;;;;7373675;19;20038;-59
2023/12/03 04:54:04;;;;;;;126.15;38.72;;;1.10;99.90;;;;;;7378991;19;21542;-59
2023/12/03 04:56:32;;;;;;;142.18;39.78;;;1.10;99.90;;;;;;7375814;19;20066;-59
2023/12/03 04:58:58;;;;;;;137.80;41.90;;;1.10;99.90;;;;;;7377024;19;20126;-59
2023/12/03 05:01:25;;;;;;;153.80;44.40;;;1.10;99.90;;;;;;7375381;19;20039;-58
2023/12/03 05:03:51;;;;;;;152.80;40.67;;;1.10;99.90;;;;;;7371889;19;20029;-59
2023/12/03 05:06:17;;;;;;;128.90;39.28;;;1.10;99.90;;;;;;7376676;19;20042;-59
2023/12/03 05:08:43;;;;;;;146.73;39.47;;;1.10;99.90;;;;;;7371553;19;20019;-59
2023/12/03 05:11:10;;;;;;;149.75;39.70;;;1.10;99.90;;;;;;7372205;19;20026;-59
2023/12/03 05:13:36;;;;;;;177.10;42.30;;;1.10;99.90;;;;;;7372564;19;20874;-57
2023/12/03 05:16:04;;;;;;;160.93;38.63;;;1.10;99.90;;;;;;7372810;19;20035;-57
2023/12/03 05:18:31;;;;;;;160.98;37.78;;;1.20;99.90;;;;;;7375069;19;20022;-58
2023/12/03 05:20:57;;;;;;;145.85;38.28;;;1.10;99.90;;;;;;7371901;19;20022;-58
2023/12/03 05:23:24;;;;;;;137.07;36.40;;;1.10;99.90;;;;;;7375937;19;20832;-58
2023/12/03 05:25:51;;;;;;;137.55;36.88;;;1.10;99.90;;;;;;7372985;19;20351;-58
2023/12/03 05:28:18;;;;;;;139.25;36.03;;;1.10;99.90;;;;;;7369188;19;20039;-57
2023/12/03 05:30:44;;;;;;;167.95;39.17;;;1.20;99.90;;;;;;7371148;19;20741;-58
2023/12/03 05:33:13;;;;;;;130.95;35.25;;;1.20;99.90;;;;;;7376723;19;20033;-58
2023/12/03 05:35:40;;;;;;;132.43;36.13;;;1.20;99.90;;;;;;7373345;19;20022;-58
2023/12/03 05:38:06;;;;;;;181.02;40.75;;;1.20;99.90;;;;;;7375607;19;20457;-58
2023/12/03 05:40:33;;;;;;;144.93;37.35;;;1.30;99.90;;;;;;7373417;19;20510;-58
2023/12/03 05:43:19;;;;;;;162.35;39.95;;;1.20;99.90;;;;;;7368324;19;20022;-58
2023/12/03 05:45:46;;;;;;;151.55;40.33;;;1.20;99.90;;;;;;7372793;19;20101;-58
2023/12/03 05:48:12;;;;;;;151.55;37.83;;;1.20;99.90;;;;;;7371175;19;20607;-58
2023/12/03 05:50:38;;;;;;;223.55;44.05;;;1.30;99.90;;;;;;7375745;19;20022;-58
2023/12/03 05:53:04;;;;;;;209.45;44.45;;;1.30;99.90;;;;;;7371353;19;20015;-61
2023/12/03 05:55:31;;;;;;;261.05;48.40;;;1.30;99.90;;;;;;7374242;19;20030;-61
2023/12/03 05:57:57;;;;;;;189.68;43.20;;;1.30;99.90;;;;;;7369603;19;20103;-61
2023/12/03 06:00:23;;;;;;;159.30;40.95;;;1.40;99.90;;;;;;7370803;19;20060;-61
2023/12/03 06:02:49;;;;;;;127.68;35.75;;;1.30;99.90;;;;;;7372967;19;20026;-61
2023/12/03 06:05:15;;;;;;;118.82;37.95;;;1.40;99.90;;;;;;7373280;19;20022;-63
2023/12/03 06:07:42;;;;;;;129.68;37.72;;;1.40;99.90;;;;;;7372439;19;20371;-61
2023/12/03 06:10:08;;;;;;;113.15;36.03;;;1.30;99.90;;;;;;7370175;19;20074;-58
2023/12/03 06:12:34;;;;;;;113.13;34.58;;;1.40;99.90;;;;;;7376096;19;20018;-58
2023/12/03 06:15:00;;;;;;;119.45;35.65;;;1.40;99.90;;;;;;7374520;19;20725;-59
2023/12/03 06:17:27;;;;;;;110.65;35.03;;;1.40;99.90;;;;;;7371650;19;20379;-58
2023/12/03 06:19:53;;;;;;;113.57;34.67;;;1.40;99.90;;;;;;7370481;19;20113;-58
2023/12/03 06:22:19;;;;;;;122.15;35.10;;;1.40;99.90;;;;;;7370888;19;20486;-58
2023/12/03 06:24:45;;;;;;;122.60;36.70;;;1.40;99.90;;;;;;7368806;19;20739;-58
2023/12/03 06:27:12;;;;;;;119.10;36.13;;;1.40;99.90;;;;;;7374247;19;20133;-58
2023/12/03 06:29:39;;;;;;;127.88;36.03;;;1.40;99.90;;;;;;7367128;19;20011;-58
2023/12/03 06:32:05;;;;;;;116.07;35.20;;;1.40;99.90;;;;;;7370635;19;20018;-59
2023/12/03 06:34:31;;;;;;;115.00;33.47;;;1.40;99.90;;;;;;7369291;19;20038;-59
2023/12/03 06:36:59;;;;;;;128.65;37.22;;;1.40;99.90;;;;;;7370604;19;20033;-58
2023/12/03 06:39:26;;;;;;;116.60;37.30;;;1.50;99.90;;;;;;7371403;19;20022;-59
2023/12/03 06:41:52;;;;;;;130.27;36.50;;;1.50;99.90;;;;;;7369555;19;20056;-58
2023/12/03 06:44:18;;;;;;;120.95;35.70;;;1.50;99.90;;;;;;7369045;19;20101;-58
2023/12/03 06:46:44;;;;;;;148.52;37.75;;;1.60;99.90;;;;;;7370740;19;21265;-59
2023/12/03 06:49:11;;;;;;;141.48;38.03;;;1.50;99.90;;;;;;7373442;19;20108;-59
2023/12/03 06:51:57;;;;;;;145.57;38.80;;;1.50;99.90;;;;;;7367202;19;20018;-59
2023/12/03 06:54:24;;;;;;;130.57;38.08;;;1.50;99.90;;;;;;7370619;19;20065;-59
2023/12/03 06:56:51;;;;;;;143.82;37.70;;;1.50;99.90;;;;;;7370212;19;20011;-58
2023/12/03 06:59:17;;;;;;;114.30;36.53;;;1.50;99.90;;;;;;7371729;19;20752;-59
2023/12/03 07:02:04;;;;;;;165.75;40.60;;;1.50;99.90;;;;;;7371472;19;20014;-58
2023/12/03 07:04:30;;;;;;;126.28;36.85;;;1.50;99.90;;;;;;7369334;19;20018;-58
2023/12/03 07:06:56;;;;;;;130.75;36.22;;;1.60;99.90;;;;;;7369331;19;20494;-59
2023/12/03 07:09:23;;;;;;;109.65;36.42;;;1.50;99.90;;;;;;7367871;19;20626;-59
2023/12/03 07:11:49;;;;;;;104.53;33.40;;;1.60;99.90;;;;;;7373989;19;20022;-58
2023/12/03 07:14:15;;;;;;;93.57;30.25;;;1.60;99.90;;;;;;7369484;19;20478;-62
2023/12/03 07:16:42;;;;;;;86.18;29.70;;;1.60;99.90;;;;;;7372300;19;20062;-62
2023/12/03 07:19:08;;;;;;;112.38;34.60;;;1.60;99.90;;;;;;7370418;19;20042;-62
2023/12/03 07:21:34;;;;;;;106.53;33.22;;;1.60;99.90;;;;;;7374129;19;20640;-62
2023/12/03 07:24:00;;;;;;;94.95;31.77;;;1.60;99.90;;;;;;7370850;19;20612;-62
2023/12/03 07:26:27;;;;;;;98.53;32.42;;;1.60;99.90;;;;;;7371771;19;20139;-62
2023/12/03 07:28:53;;;;;;;99.95;32.90;;;1.60;99.90;;;;;;7369992;19;20042;-63
2023/12/03 07:31:20;;;;;;;107.00;32.67;;;1.60;99.90;;;;;;7367732;19;20868;-59
2023/12/03 07:33:46;;;;;;;93.32;30.65;;;1.60;99.90;;;;;;7370066;19;20589;-59
2023/12/03 07:36:12;;;;;;;84.82;27.80;;;1.60;99.90;;;;;;7372402;19;21146;-59
2023/12/03 07:38:39;;;;;;;76.43;27.92;;;1.60;99.90;;;;;;7376753;19;20102;-59
2023/12/03 07:41:15;;;;;;;87.30;29.10;;;1.60;99.90;;;;;;7372937;19;20026;-59
2023/12/03 07:43:44;;;;;;;99.15;30.17;;;1.60;99.90;;;;;;7372264;19;20019;-58
2023/12/03 07:46:17;;;;;;;92.78;29.98;;;1.60;99.90;;;;;;7374791;19;20507;-59
2023/12/03 07:48:45;;;;;;;101.32;31.35;;;1.70;99.90;;;;;;7373912;19;20105;-59
2023/12/03 07:51:12;;;;;;;80.75;26.55;;;1.60;99.90;;;;;;7373279;19;20022;-58
2023/12/03 07:53:42;;;;;;;85.43;27.58;;;1.70;99.90;;;;;;7377418;19;20018;-59
2023/12/03 07:56:08;;;;;;;78.43;28.65;;;1.70;99.90;;;;;;7377628;19;20713;-58
2023/12/03 07:58:35;;;;;;;91.72;29.48;;;1.70;99.90;;;;;;7380942;19;20439;-58
2023/12/03 08:01:05;;;;;;;76.22;28.80;;;1.70;99.90;;;;;;7378446;19;20286;-58
2023/12/03 08:03:31;;;;;;;87.03;28.98;;;1.70;99.90;;;;;;7379290;19;20021;-59
2023/12/03 08:05:58;;;;;;;76.78;27.25;;;1.70;99.90;;;;;;7380292;19;20026;-59
2023/12/03 08:08:24;;;;;;;85.78;29.38;;;1.70;99.90;;;;;;7381028;19;20014;-59
2023/12/03 08:10:50;;;;;;;76.07;28.17;;;1.70;99.90;;;;;;7380983;19;20019;-59
2023/12/03 08:13:17;;;;;;;74.60;26.73;;;1.80;99.90;;;;;;7376425;19;20022;-59
2023/12/03 08:15:43;;;;;;;76.00;27.08;;;1.80;99.90;;;;;;7380101;19;20367;-59
2023/12/03 08:18:31;;;;;;;70.10;26.55;;;1.80;99.90;;;;;;7378368;19;20026;-60
2023/12/03 08:20:57;;;;;;;89.57;28.75;;;1.80;99.90;;;;;;7378880;19;20014;-58
2023/12/03 08:23:44;;;;;;;73.93;27.50;;;1.80;99.90;;;;;;7374711;19;20018;-58
2023/12/03 08:26:10;;;;;;;73.85;26.88;;;1.80;99.90;;;;;;7376983;19;20018;-59
2023/12/03 08:28:36;;;;;;;70.13;26.77;;;1.90;99.90;;;;;;7375101;19;20018;-60
2023/12/03 08:31:03;;;;;;;78.50;26.45;;;1.90;99.90;;;;;;7377699;19;20485;-59
2023/12/03 08:33:30;;;;;;;73.75;26.63;;;1.90;99.90;;;;;;7375160;19;20073;-59
2023/12/03 08:35:57;;;;;;;80.50;27.67;;;1.90;99.90;;;;;;7379702;19;20060;-60
2023/12/03 08:38:23;;;;;;;72.93;29.52;;;1.90;99.90;;;;;;7380738;19;20019;-60
2023/12/03 08:40:50;;;;;;;74.80;28.35;;;1.90;99.90;;;;;;7379494;19;20026;-60
2023/12/03 08:43:16;;;;;;;64.78;27.58;;;2.00;99.90;;;;;;7375466;19;20026;-60
2023/12/03 08:45:43;;;;;;;71.28;26.70;;;2.00;99.90;;;;;;7377502;19;20405;-60
2023/12/03 08:48:12;;;;;;;72.35;27.60;;;2.00;99.90;;;;;;7379394;19;20493;-60
2023/12/03 08:50:38;;;;;;;65.57;29.65;;;2.00;99.90;;;;;;7378690;19;20026;-59
2023/12/03 08:53:05;;;;;;;67.00;30.80;;;2.10;99.90;;;;;;7376070;19;20035;-60
2023/12/03 08:55:31;;;;;;;72.75;30.55;;;2.10;99.90;;;;;;7379522;19;20432;-60
2023/12/03 08:57:58;;;;;;;70.32;29.95;;;2.10;99.90;;;;;;7377183;19;20378;-60
2023/12/03 09:00:24;;;;;;;65.70;29.73;;;2.20;99.90;;;;;;7378276;19;20038;-60
2023/12/03 09:02:50;;;;;;;60.80;29.48;;;2.20;99.90;;;;;;7374790;19;20022;-63
2023/12/03 09:05:17;;;;;;;68.00;30.10;;;2.30;99.90;;;;;;7376328;19;21611;-63
2023/12/03 09:07:43;;;;;;;64.55;30.95;;;2.30;99.90;;;;;;7378026;19;20079;-63
2023/12/03 09:10:09;;;;;;;61.58;31.27;;;2.40;99.90;;;;;;7376339;19;20022;-60
2023/12/03 09:12:36;;;;;;;62.65;32.10;;;2.40;99.90;;;;;;7378863;19;20022;-60
2023/12/03 09:15:02;;;;;;;57.15;29.98;;;2.40;99.90;;;;;;7376520;19;20033;-60
2023/12/03 09:17:31;;;;;;;61.85;31.95;;;2.50;99.90;;;;;;7381159;19;20018;-60
2023/12/03 09:19:58;;;;;;;57.13;30.92;;;2.50;99.90;;;;;;7376166;19;20015;-60
2023/12/03 09:22:24;;;;;;;58.10;31.45;;;2.50;99.90;;;;;;7378042;19;20015;-60
2023/12/03 09:24:50;;;;;;;55.67;30.95;;;2.50;99.90;;;;;;7376059;19;20022;-60
2023/12/03 09:27:19;;;;;;;52.88;30.45;;;2.50;99.90;;;;;;7377419;19;20107;-59
2023/12/03 09:29:46;;;;;;;58.58;30.48;;;2.50;99.90;;;;;;7375173;19;20080;-60
2023/12/03 09:32:12;;;;;;;50.92;31.27;;;2.50;99.90;;;;;;7375037;19;20530;-66
2023/12/03 09:34:39;;;;;;;55.63;30.73;;;2.50;99.90;;;;;;7375147;19;20034;-63
2023/12/03 09:37:05;;;;;;;51.05;32.83;;;2.50;99.90;;;;;;7376803;19;20474;-60
2023/12/03 09:39:31;;;;;;;49.78;31.02;;;2.60;99.90;;;;;;7376736;19;20078;-60
2023/12/03 09:42:02;;;;;;;51.40;32.28;;;2.70;99.90;;;;;;7374448;19;20025;-60
2023/12/03 09:44:44;;;;;;;48.75;32.13;;;2.90;99.90;;;;;;7375831;19;20914;-60
2023/12/03 09:47:13;;;;;;;52.47;34.50;;;3.00;99.90;;;;;;7377859;19;20022;-60
2023/12/03 09:49:45;;;;;;;47.55;31.23;;;3.00;99.90;;;;;;7374194;19;20347;-64
2023/12/03 09:52:12;;;;;;;48.40;32.97;;;3.10;99.90;;;;;;7373664;19;20390;-64
2023/12/03 09:54:40;;;;;;;48.15;31.45;;;3.10;99.90;;;;;;7377392;19;20026;-64
2023/12/03 09:57:30;;;;;;;45.55;31.10;;;3.20;99.90;;;;;;7376506;19;20558;-64
2023/12/03 10:00:05;;;;;;;46.63;31.60;;;3.20;99.90;;;;;;7376954;19;20050;-64
2023/12/03 10:02:37;;;;;;;45.63;33.38;;;3.20;99.90;;;;;;7374804;19;20125;-64
2023/12/03 10:05:04;;;;;;;43.20;31.95;;;3.00;99.90;;;;;;7375908;19;20018;-64
2023/12/03 10:07:31;;;;;;;48.35;33.42;;;3.00;99.90;;;;;;7374188;19;20524;-65
2023/12/03 10:09:58;;;;;;;42.92;32.08;;;3.00;99.90;;;;;;7377122;19;20022;-63
2023/12/03 10:12:42;;;;;;;40.92;30.15;;;3.40;99.90;;;;;;7373975;19;20043;-60
2023/12/03 10:15:12;;;;;;;39.45;29.33;;;3.90;99.90;;;;;;7369618;19;20014;-61
2023/12/03 10:17:39;;;;;;;36.97;29.48;;;4.50;99.90;;;;;;7376954;19;20026;-60
2023/12/03 10:20:27;;;;;;;41.50;30.60;;;4.70;99.90;;;;;;7374673;19;20026;-60
2023/12/03 10:22:57;;;;;;;38.90;28.85;;;4.90;99.90;;;;;;7376086;19;20019;-59
2023/12/03 10:25:35;;;;;;;35.67;27.63;;;4.90;99.90;;;;;;7376529;19;20018;-59
2023/12/03 10:28:04;;;;;;;34.20;26.52;;;4.90;99.90;;;;;;7374735;19;20075;-59
2023/12/03 10:30:31;;;;;;;32.97;26.23;;;4.80;99.90;;;;;;7376958;19;20617;-59
2023/12/03 10:33:00;;;;;;;33.65;25.23;;;4.60;99.90;;;;;;7375295;19;20018;-59
2023/12/03 10:35:35;;;;;;;32.50;25.20;;;4.70;99.90;;;;;;7373116;19;20031;-59
2023/12/03 10:38:05;;;;;;;33.33;25.58;;;4.70;99.90;;;;;;7374544;19;20367;-60
2023/12/03 10:40:33;;;;;;;35.10;25.50;;;4.60;99.90;;;;;;7374041;19;20026;-60
2023/12/03 10:43:01;;;;;;;32.35;25.73;;;4.50;99.90;;;;;;7374107;19;20018;-60
2023/12/03 10:45:32;;;;;;;32.40;25.77;;;4.60;99.90;;;;;;7373466;19;20022;-59
2023/12/03 10:48:02;;;;;;;32.80;24.20;;;5.00;99.90;;;;;;7368445;19;20014;-60
2023/12/03 10:50:30;;;;;;;32.47;23.95;;;5.90;99.90;;;;;;7374585;19;20784;-61
2023/12/03 10:52:59;;;;;;;31.05;24.38;;;6.40;99.90;;;;;;7373581;19;20786;-60
2023/12/03 10:55:26;;;;;;;33.92;26.20;;;6.10;99.90;;;;;;7372678;19;20014;-60
2023/12/03 10:58:14;;;;;;;32.40;25.17;;;6.30;99.90;;;;;;7375320;19;20022;-60
2023/12/03 11:00:43;;;;;;;33.63;25.05;;;5.80;99.90;;;;;;7374356;19;20022;-60
2023/12/03 11:03:56;;;;;;;32.70;25.50;;;5.40;99.90;;;;;;7375010;19;20018;-60
2023/12/03 11:06:24;;;;;;;32.53;23.83;;;4.80;99.90;;;;;;7371360;19;20502;-59
2023/12/03 11:08:51;;;;;;;32.40;24.42;;;4.40;99.90;;;;;;7374420;19;20018;-60
2023/12/03 11:11:21;;;;;;;29.67;23.58;;;4.10;99.90;;;;;;7375619;19;20059;-63
2023/12/03 11:13:51;;;;;;;32.08;23.00;;;4.00;99.90;;;;;;7368879;19;20778;-63
2023/12/03 11:16:18;;;;;;;32.67;24.77;;;3.80;99.90;;;;;;7373209;19;20019;-59
2023/12/03 11:18:54;;;;;;;31.80;23.08;;;3.70;99.90;;;;;;7373951;19;20776;-61
2023/12/03 11:21:44;;;;;;;32.20;23.10;;;3.70;99.90;;;;;;7374763;19;20030;-64
2023/12/03 11:24:32;;;;;;;33.47;22.92;;;3.60;99.90;;;;;;7373965;19;20026;-60
2023/12/03 11:26:59;;;;;;;27.13;21.48;;;3.50;99.90;;;;;;7376539;19;20043;-60
2023/12/03 11:29:51;;;;;;;31.55;22.65;;;3.40;99.90;;;;;;7378600;19;20030;-60
2023/12/03 11:32:18;;;;;;;30.27;22.80;;;3.20;99.90;;;;;;7383056;19;20030;-64
2023/12/03 11:34:56;;;;;;;30.75;22.63;;;3.10;99.90;;;;;;7377868;19;20007;-65
2023/12/03 11:37:26;;;;;;;36.55;25.35;;;3.00;99.90;;;;;;7374202;19;20011;-65
2023/12/03 11:40:14;;;;;;;37.53;25.00;;;3.00;99.90;;;;;;7378320;19;20019;-64
2023/12/03 11:42:48;;;;;;;37.20;25.45;;;2.90;99.90;;;;;;7380906;19;20014;-61
2023/12/03 11:45:29;;;;;;;34.70;24.65;;;2.90;99.90;;;;;;7381044;19;20044;-60
2023/12/03 11:48:07;;;;;;;40.15;27.55;;;2.90;99.90;;;;;;7379302;19;20028;-61
2023/12/03 11:50:38;;;;;;;40.67;27.08;;;2.90;99.90;;;;;;7381365;19;20078;-61
2023/12/03 11:53:09;;;;;;;38.00;24.90;;;2.90;99.90;;;;;;7376797;19;20032;-60
2023/12/03 11:55:39;;;;;;;40.40;27.13;;;2.80;99.90;;;;;;7378068;19;20022;-60
2023/12/03 11:58:05;;;;;;;39.88;26.80;;;2.70;99.90;;;;;;7377868;19;20018;-60
2023/12/03 12:00:33;;;;;;;47.63;29.20;;;2.60;99.90;;;;;;7379632;19;20078;-61
2023/12/03 12:03:02;;;;;;;46.45;30.20;;;2.50;99.90;;;;;;7376470;19;20525;-60
2023/12/03 12:05:28;;;;;;;52.38;33.78;;;2.50;99.90;;;;;;7378322;19;20014;-60
2023/12/03 12:08:24;;;;;;;50.05;31.98;;;2.50;99.90;;;;;;7376601;19;20104;-60
2023/12/03 12:10:51;;;;;;;52.75;32.92;;;2.60;99.90;;;;;;7377663;19;20026;-61
2023/12/03 12:13:18;;;;;;;50.72;31.15;;;2.70;99.90;;;;;;7380253;19;20210;-61
2023/12/03 12:15:45;;;;;;;48.17;32.47;;;3.00;99.90;;;;;;7376978;19;20458;-62
2023/12/03 12:18:12;;;;;;;52.30;34.35;;;3.40;99.90;;;;;;7373718;19;20022;-59
2023/12/03 12:20:38;;;;;;;43.38;30.85;;;3.80;99.90;;;;;;7376424;19;20018;-59
2023/12/03 12:23:04;;;;;;;44.45;30.02;;;4.10;99.90;;;;;;7378358;19;20057;-60
2023/12/03 12:25:31;;;;;;;48.00;31.27;;;4.60;99.90;;;;;;7375523;19;20029;-59
2023/12/03 12:27:57;;;;;;;43.40;30.13;;;5.10;99.90;;;;;;7373769;19;20070;-59
2023/12/03 12:30:27;;;;;;;45.60;31.80;;;5.40;99.90;;;;;;7379386;19;20116;-60
2023/12/03 12:32:57;;;;;;;42.47;30.05;;;5.50;99.90;;;;;;7377165;19;20154;-61
2023/12/03 12:35:24;;;;;;;40.88;28.90;;;5.50;99.90;;;;;;7373646;19;20018;-64
2023/12/03 12:38:06;;;;;;;40.65;28.42;;;5.70;99.90;;;;;;7373530;19;20018;-64
2023/12/03 12:40:38;;;;;;;44.17;28.65;;;5.80;99.90;;;;;;7372422;19;20144;-66